Time;durP1;ratioP1;P1;durP2;ratioP2;P2;SDS_P1;SDS_P2;PMS_P1;PMS_P2;Temp;Humidity;BMP_temperature;BMP_pressure;BME280_temperature;BME280_humidity;BME280_pressure;Samples;Min_cycle;Max_cycle;Signal;HPM_P1;HPM_P2
2023/06/22 00:00:21;;;;;;;8.27;3.20;;;;;;;20.63;100.00;101788.09;5216654;28;20026;-68
2023/06/22 00:02:52;;;;;;;4.95;3.15;;;;;;;20.55;100.00;101782.00;5218491;28;20473;-68
2023/06/22 00:05:23;;;;;;;8.67;2.80;;;;;;;20.55;100.00;101771.34;5216636;28;20041;-68
2023/06/22 00:07:55;;;;;;;9.37;3.60;;;;;;;20.47;100.00;101768.69;5218413;28;20040;-68
2023/06/22 00:10:26;;;;;;;10.30;3.50;;;;;;;20.40;100.00;101764.03;5217363;28;20022;-65
2023/06/22 00:12:57;;;;;;;8.80;3.83;;;;;;;20.37;100.00;101780.34;5216638;28;20042;-69
2023/06/22 00:15:29;;;;;;;7.90;3.57;;;;;;;20.35;100.00;101773.56;5215436;28;20040;-67
2023/06/22 00:18:02;;;;;;;8.77;4.30;;;;;;;20.31;100.00;101772.25;5214742;28;20030;-67
2023/06/22 00:20:36;;;;;;;;;;;;;;;21.06;100.00;101769.06;5198890;28;20049;-67
2023/06/22 00:23:08;;;;;;;5.45;3.05;;;;;;;20.25;100.00;101779.06;5215601;28;19964;-67
2023/06/22 00:25:40;;;;;;;7.93;3.57;;;;;;;20.27;100.00;101773.59;5217564;28;20057;-67
2023/06/22 00:28:11;;;;;;;6.40;4.13;;;;;;;20.18;100.00;101776.25;5210204;28;20022;-67
2023/06/22 00:30:42;;;;;;;9.57;4.03;;;;;;;20.14;100.00;101774.09;5216627;28;20112;-67
2023/06/22 00:33:13;;;;;;;5.03;3.80;;;;;;;20.10;100.00;101767.47;5214110;28;20038;-67
2023/06/22 00:35:45;;;;;;;8.63;4.20;;;;;;;20.06;100.00;101769.63;5216997;28;20058;-67
2023/06/22 00:38:16;;;;;;;6.87;4.47;;;;;;;20.01;100.00;101773.81;5215075;28;20056;-68
2023/06/22 00:40:47;;;;;;;5.07;4.00;;;;;;;19.92;100.00;101765.81;5222716;28;20026;-66
2023/06/22 00:43:19;;;;;;;7.03;4.43;;;;;;;19.82;100.00;101767.03;5215474;28;20060;-69
2023/06/22 00:45:50;;;;;;;5.53;4.23;;;;;;;19.80;100.00;101758.38;5215299;28;20104;-68
2023/06/22 00:48:22;;;;;;;5.23;4.00;;;;;;;19.78;100.00;101761.22;5217515;28;20078;-69
2023/06/22 00:50:55;;;;;;;8.37;4.60;;;;;;;19.75;100.00;101760.72;5217650;28;20033;-68
2023/06/22 00:53:26;;;;;;;6.20;4.75;;;;;;;19.76;100.00;101759.72;5217165;28;20136;-68
2023/06/22 00:55:59;;;;;;;7.53;4.53;;;;;;;19.80;100.00;101766.34;5216921;28;20550;-68
2023/06/22 00:58:31;;;;;;;;;;;;;;;20.51;100.00;101764.72;5221558;28;20539;-67
2023/06/22 01:01:02;;;;;;;8.68;4.03;;;;;;;19.75;100.00;101758.06;5217124;28;19921;-68
2023/06/22 01:03:34;;;;;;;7.40;4.70;;;;;;;19.74;100.00;101764.38;5225664;28;20761;-68
2023/06/22 01:06:10;;;;;;;6.07;3.80;;;;;;;19.79;100.00;101754.91;5222357;28;20037;-66
2023/06/22 01:08:51;;;;;;;4.78;4.05;;;;;;;19.74;100.00;101753.75;5220026;28;20029;-68
2023/06/22 01:11:31;;;;;;;6.05;4.07;;;;;;;19.65;100.00;101758.22;5223301;28;20117;-69
2023/06/22 01:14:15;;;;;;;5.85;4.40;;;;;;;19.75;100.00;101758.06;5218872;28;20112;-67
2023/06/22 01:16:48;;;;;;;6.85;4.28;;;;;;;19.59;100.00;101751.75;5214842;28;20034;-68
2023/06/22 01:19:29;;;;;;;6.15;4.00;;;;;;;19.73;100.00;101760.06;5218338;28;20382;-67
2023/06/22 01:22:02;;;;;;;6.03;3.90;;;;;;;19.52;100.00;101761.38;5220012;28;20048;-66
2023/06/22 01:24:42;;;;;;;;;;;;;;;20.30;100.00;101758.09;5219454;28;20113;-67
2023/06/22 01:27:32;;;;;;;8.90;4.50;;;;;;;19.84;100.00;101762.38;5216115;28;19948;-66
2023/06/22 01:30:05;;;;;;;5.72;5.20;;;;;;;19.57;100.00;101766.19;5208300;28;20044;-69
2023/06/22 01:32:38;;;;;;;;;;;;;;;20.32;100.00;101758.75;5223637;28;20081;-68
2023/06/22 01:35:10;;;;;;;7.00;5.60;;;;;;;19.63;100.00;101753.09;5217405;28;19917;-68
2023/06/22 01:37:42;;;;;;;6.60;4.70;;;;;;;19.62;100.00;101751.44;5218677;28;20100;-65
2023/06/22 01:40:14;;;;;;;5.63;5.03;;;;;;;19.61;100.00;101746.25;5217320;28;20228;-68
2023/06/22 01:42:47;;;;;;;7.03;5.28;;;;;;;19.57;100.00;101747.56;5219432;28;20029;-66
2023/06/22 01:45:19;;;;;;;7.20;6.25;;;;;;;19.58;100.00;101750.06;5214320;28;20167;-68
2023/06/22 01:47:50;;;;;;;7.03;5.35;;;;;;;19.59;100.00;101750.91;5217121;28;20046;-66
2023/06/22 01:50:21;;;;;;;7.47;6.23;;;;;;;19.59;100.00;101750.91;5212159;28;20103;-69
2023/06/22 01:52:53;;;;;;;7.70;6.00;;;;;;;19.58;100.00;101755.38;5216061;28;20025;-66
2023/06/22 01:55:24;;;;;;;6.83;6.13;;;;;;;19.57;100.00;101747.56;5218838;28;20072;-66
2023/06/22 01:57:55;;;;;;;6.47;5.50;;;;;;;19.60;100.00;101756.03;5220882;28;20021;-66
2023/06/22 02:00:31;;;;;;;7.90;5.90;;;;;;;19.56;100.00;101741.44;5222070;28;20037;-68
2023/06/22 02:03:13;;;;;;;6.95;5.72;;;;;;;19.79;100.00;101748.75;5211323;28;20033;-68
2023/06/22 02:05:54;;;;;;;6.85;5.40;;;;;;;19.63;100.00;101742.47;5218049;28;20134;-67
2023/06/22 02:08:31;;;;;;;6.78;5.65;;;;;;;19.52;100.00;101741.94;5221694;28;20458;-68
2023/06/22 02:11:03;;;;;;;6.97;6.28;;;;;;;19.40;100.00;101741.44;5200098;28;20037;-69
2023/06/22 02:13:36;;;;;;;6.70;6.10;;;;;;;19.40;100.00;101749.41;5218864;28;20483;-66
2023/06/22 02:16:07;;;;;;;7.25;5.90;;;;;;;19.38;100.00;101738.09;5219744;28;20284;-66
2023/06/22 02:18:40;;;;;;;15.63;7.55;;;;;;;19.43;100.00;101743.75;5219404;28;20466;-68
2023/06/22 02:21:11;;;;;;;11.40;6.13;;;;;;;19.37;100.00;101747.91;5219908;28;20081;-68
2023/06/22 02:23:42;;;;;;;7.25;6.53;;;;;;;19.41;100.00;101743.09;5212647;28;20022;-67
2023/06/22 02:26:16;;;;;;;7.65;6.63;;;;;;;19.41;100.00;101745.75;5213512;28;20037;-66
2023/06/22 02:28:47;;;;;;;8.18;6.72;;;;;;;19.35;100.00;101735.78;5215748;28;20021;-68
2023/06/22 02:31:19;;;;;;;7.18;6.40;;;;;;;19.46;100.00;101732.78;5221994;28;20028;-67
2023/06/22 02:33:51;;;;;;;10.38;7.05;;;;;;;19.37;100.00;101726.66;5215988;28;20028;-66
2023/06/22 02:36:22;;;;;;;7.50;6.53;;;;;;;19.37;100.00;101724.00;5220634;28;20798;-67
2023/06/22 02:38:58;;;;;;;7.93;7.13;;;;;;;19.39;100.00;101729.97;5219050;28;20468;-66
2023/06/22 02:41:30;;;;;;;8.75;6.70;;;;;;;19.28;100.00;101724.16;5217809;28;20078;-68
2023/06/22 02:44:01;;;;;;;10.18;7.53;;;;;;;19.34;100.00;101723.50;5221642;28;20025;-66
2023/06/22 02:46:32;;;;;;;8.00;7.30;;;;;;;19.25;100.00;101729.81;5215906;28;20029;-67
2023/06/22 02:49:03;;;;;;;8.48;7.68;;;;;;;19.15;100.00;101717.50;5212896;28;20067;-67
2023/06/22 02:51:35;;;;;;;8.70;7.50;;;;;;;19.12;100.00;101719.66;5222791;28;20035;-68
2023/06/22 02:54:06;;;;;;;8.73;7.63;;;;;;;19.09;100.00;101709.38;5214555;28;20045;-66
2023/06/22 02:56:40;;;;;;;9.17;7.83;;;;;;;19.07;100.00;101717.50;5220460;28;20039;-67
2023/06/22 02:59:11;;;;;;;9.32;7.07;;;;;;;18.97;100.00;101716.81;5217463;28;20022;-67
2023/06/22 03:01:43;;;;;;;9.18;7.43;;;;;;;19.00;100.00;101716.50;5223796;28;20114;-66
2023/06/22 03:04:15;;;;;;;8.20;7.47;;;;;;;18.98;100.00;101712.34;5222735;28;20104;-66
2023/06/22 03:06:50;;;;;;;10.82;7.72;;;;;;;18.94;100.00;101696.75;5215053;28;20071;-66
2023/06/22 03:09:22;;;;;;;9.82;7.78;;;;;;;18.84;100.00;101697.91;5219887;28;20049;-69
2023/06/22 03:11:56;;;;;;;9.02;7.18;;;;;;;18.95;100.00;101700.25;5221383;28;20046;-66
2023/06/22 03:14:27;;;;;;;10.07;8.50;;;;;;;18.86;100.00;101696.72;5215905;28;20062;-66
2023/06/22 03:17:02;;;;;;;10.18;8.27;;;;;;;18.83;100.00;101693.59;5221441;28;20029;-66
2023/06/22 03:19:34;;;;;;;11.02;8.45;;;;;;;18.70;100.00;101689.56;5219700;28;20051;-68
2023/06/22 03:22:07;;;;;;;9.53;8.53;;;;;;;18.73;100.00;101683.09;5215161;28;20037;-68
2023/06/22 03:24:39;;;;;;;9.70;8.15;;;;;;;18.75;100.00;101674.97;5215498;28;20033;-67
2023/06/22 03:27:10;;;;;;;10.73;7.80;;;;;;;18.78;100.00;101682.59;5214915;28;20041;-69
2023/06/22 03:29:41;;;;;;;9.00;7.85;;;;;;;18.81;100.00;101680.47;5221474;28;20312;-67
2023/06/22 03:32:12;;;;;;;9.70;8.70;;;;;;;18.79;100.00;101687.78;5214951;28;20521;-69
2023/06/22 03:34:46;;;;;;;11.93;8.80;;;;;;;18.80;100.00;101683.28;5217459;28;20033;-68
2023/06/22 03:37:18;;;;;;;10.25;8.50;;;;;;;18.73;100.00;101685.75;5218074;28;20033;-68
2023/06/22 03:39:49;;;;;;;11.93;8.93;;;;;;;18.81;100.00;101683.13;5214884;28;20020;-68
2023/06/22 03:42:20;;;;;;;11.60;8.93;;;;;;;18.71;100.00;101675.31;5221638;28;20133;-68
2023/06/22 03:44:52;;;;;;;10.73;8.83;;;;;;;18.81;100.00;101676.97;5223851;28;20017;-68
2023/06/22 03:47:23;;;;;;;9.57;8.63;;;;;;;18.83;100.00;101675.84;5210640;28;20118;-68
2023/06/22 03:49:54;;;;;;;10.23;9.00;;;;;;;18.73;100.00;101667.19;5218688;28;20494;-67
2023/06/22 03:52:26;;;;;;;9.60;8.70;;;;;;;18.74;100.00;101671.50;5219077;28;20069;-68
2023/06/22 03:54:57;;;;;;;10.23;9.23;;;;;;;18.77;100.00;101668.50;5221570;28;20034;-67
2023/06/22 03:57:28;;;;;;;14.93;10.50;;;;;;;18.76;100.00;101676.66;5215952;28;20037;-67
2023/06/22 04:00:05;;;;;;;11.27;9.57;;;;;;;18.87;100.00;101671.84;5218432;28;20162;-67
2023/06/22 04:02:36;;;;;;;12.00;10.68;;;;;;;18.75;100.00;101661.69;5212683;28;20034;-66
2023/06/22 04:05:08;;;;;;;11.38;10.27;;;;;;;18.80;100.00;101662.06;5215067;28;20498;-66
2023/06/22 04:07:40;;;;;;;11.95;10.73;;;;;;;18.85;100.00;101668.50;5219091;28;20021;-67
2023/06/22 04:10:11;;;;;;;12.40;10.60;;;;;;;18.95;100.00;101668.38;5220476;28;20048;-67
2023/06/22 04:12:42;;;;;;;12.50;11.20;;;;;;;18.99;100.00;101669.69;5213767;28;20120;-67
2023/06/22 04:15:14;;;;;;;11.90;10.67;;;;;;;19.03;100.00;101659.59;5213573;28;20119;-68
2023/06/22 04:17:45;;;;;;;15.57;10.90;;;;;;;19.12;100.00;101672.69;5215508;28;20059;-67
2023/06/22 04:20:16;;;;;;;14.93;12.65;;;;;;;19.14;100.00;101669.88;5217735;28;20119;-66
2023/06/22 04:22:48;;;;;;;12.13;10.83;;;;;;;19.17;100.00;101667.72;5218405;28;20030;-67
2023/06/22 04:25:19;;;;;;;11.43;10.30;;;;;;;19.16;100.00;101679.31;5216186;28;20120;-67
2023/06/22 04:27:51;;;;;;;12.33;10.87;;;;;;;19.18;100.00;101677.34;5213249;28;20083;-66
2023/06/22 04:30:22;;;;;;;12.00;10.82;;;;;;;19.27;100.00;101680.00;5216309;28;20208;-67
2023/06/22 04:32:57;;;;;;;12.38;11.15;;;;;;;19.30;100.00;101679.66;5216996;28;20596;-68
2023/06/22 04:35:28;;;;;;;13.07;11.77;;;;;;;19.34;100.00;101680.97;5213416;28;20044;-67
2023/06/22 04:38:00;;;;;;;12.65;11.35;;;;;;;19.48;100.00;101677.66;5218759;28;20033;-67
2023/06/22 04:40:31;;;;;;;12.87;11.57;;;;;;;19.52;100.00;101672.84;5213246;28;20021;-68
2023/06/22 04:43:02;;;;;;;12.30;11.10;;;;;;;19.57;100.00;101681.94;5218071;28;20126;-67
2023/06/22 04:45:35;;;;;;;13.83;12.43;;;;;;;19.63;100.00;101676.00;5215068;28;20033;-67
2023/06/22 04:48:08;;;;;;;13.48;11.77;;;;;;;19.67;100.00;101679.16;5215230;28;20053;-67
2023/06/22 04:50:40;;;;;;;12.40;10.77;;;;;;;19.69;100.00;101682.44;5205245;28;20090;-67
2023/06/22 04:53:12;;;;;;;14.45;11.27;;;;;;;19.81;100.00;101686.44;5217216;28;20213;-68
2023/06/22 04:55:45;;;;;;;18.50;11.57;;;;;;;19.82;100.00;101672.13;5226286;28;20076;-67
2023/06/22 04:58:16;;;;;;;11.90;10.70;;;;;;;19.87;100.00;101676.94;5213815;28;20022;-68
2023/06/22 05:00:48;;;;;;;11.65;10.55;;;;;;;19.95;100.00;101678.72;5217006;28;20394;-67
2023/06/22 05:03:19;;;;;;;12.75;11.52;;;;;;;19.97;100.00;101682.91;5220329;28;20498;-67
2023/06/22 05:05:50;;;;;;;12.30;11.20;;;;;;;20.02;100.00;101679.72;5211985;28;20030;-67
2023/06/22 05:08:26;;;;;;;12.73;11.43;;;;;;;20.05;100.00;101677.53;5219514;28;20048;-66
2023/06/22 05:10:57;;;;;;;14.40;11.75;;;;;;;20.02;100.00;101672.56;5213777;28;20026;-67
2023/06/22 05:13:28;;;;;;;13.85;12.45;;;;;;;20.13;100.00;101672.19;5223380;28;20025;-68
2023/06/22 05:16:02;;;;;;;12.90;11.60;;;;;;;20.18;100.00;101669.81;5216363;28;20022;-68
2023/06/22 05:18:34;;;;;;;13.65;12.25;;;;;;;20.22;100.00;101677.47;5216045;28;20114;-68
2023/06/22 05:21:06;;;;;;;13.73;12.18;;;;;;;20.36;100.00;101674.91;5211045;28;20033;-69
2023/06/22 05:23:37;;;;;;;15.60;14.00;;;;;;;20.48;100.00;101674.50;5213253;28;20028;-67
2023/06/22 05:26:10;;;;;;;15.20;13.53;;;;;;;20.55;100.00;101675.50;5219595;28;20134;-69
2023/06/22 05:28:41;;;;;;;17.02;15.15;;;;;;;20.61;100.00;101678.31;5213984;28;20026;-68
2023/06/22 05:31:14;;;;;;;15.60;14.17;;;;;;;20.71;100.00;101672.72;5214295;28;20434;-69
2023/06/22 05:33:47;;;;;;;15.60;14.10;;;;;;;20.77;100.00;101674.69;5213755;28;20026;-68
2023/06/22 05:36:24;;;;;;;16.30;14.40;;;;;;;20.85;100.00;101661.31;5211166;28;20041;-68
2023/06/22 05:38:57;;;;;;;16.30;14.75;;;;;;;20.87;100.00;101666.47;5214646;28;20464;-67
2023/06/22 05:41:28;;;;;;;17.58;15.48;;;;;;;20.88;100.00;101666.28;5216022;28;20058;-68
2023/06/22 05:43:59;;;;;;;15.80;14.10;;;;;;;20.91;100.00;101654.47;5214812;28;20866;-69
2023/06/22 05:46:30;;;;;;;16.00;14.30;;;;;;;20.90;100.00;101660.78;5217443;28;20546;-66
2023/06/22 05:49:02;;;;;;;15.50;13.97;;;;;;;20.92;100.00;101656.13;5219716;28;20036;-67
2023/06/22 05:51:33;;;;;;;15.93;14.33;;;;;;;20.96;100.00;101673.41;5198341;28;20098;-69
2023/06/22 05:54:05;;;;;;;17.17;14.57;;;;;;;20.98;100.00;101667.88;5219370;28;20109;-68
2023/06/22 05:56:36;;;;;;;16.90;15.13;;;;;;;21.02;100.00;101671.84;5218578;28;20082;-67
2023/06/22 05:59:07;;;;;;;17.53;15.43;;;;;;;21.08;100.00;101671.97;5221510;28;20053;-67
2023/06/22 06:01:39;;;;;;;16.10;14.57;;;;;;;21.18;100.00;101671.72;5219020;28;20086;-66
2023/06/22 06:04:11;;;;;;;15.50;13.98;;;;;;;21.26;100.00;101668.16;5215761;28;20049;-68
2023/06/22 06:06:42;;;;;;;17.30;15.57;;;;;;;21.30;100.00;101664.13;5217184;28;20018;-67
2023/06/22 06:09:14;;;;;;;17.77;16.00;;;;;;;21.37;100.00;101671.25;5217793;28;20034;-67
2023/06/22 06:11:45;;;;;;;18.77;15.38;;;;;;;21.48;100.00;101664.66;5227447;28;20097;-67
2023/06/22 06:14:17;;;;;;;16.77;15.17;;;;;;;21.50;100.00;101659.13;5217688;28;20133;-66
2023/06/22 06:16:49;;;;;;;16.57;14.83;;;;;;;21.51;100.00;101655.44;5216557;28;20617;-67
2023/06/22 06:19:20;;;;;;;17.17;15.37;;;;;;;21.58;100.00;101659.03;5217008;28;20515;-66
2023/06/22 06:21:52;;;;;;;16.63;15.07;;;;;;;21.62;100.00;101663.81;5217734;28;20364;-67
2023/06/22 06:24:23;;;;;;;15.70;14.10;;;;;;;21.70;100.00;101662.91;5210480;28;20037;-65
2023/06/22 06:26:55;;;;;;;16.13;14.57;;;;;;;21.79;100.00;101666.31;5201607;28;20061;-65
2023/06/22 06:29:26;;;;;;;16.20;14.17;;;;;;;21.78;100.00;101667.31;5217135;28;20024;-65
2023/06/22 06:31:57;;;;;;;15.63;14.07;;;;;;;21.89;100.00;101668.69;5222209;28;20117;-65
2023/06/22 06:34:28;;;;;;;15.67;14.17;;;;;;;21.89;100.00;101658.03;5213985;28;20029;-65
2023/06/22 06:37:00;;;;;;;17.87;15.07;;;;;;;21.99;100.00;101659.41;5218991;28;20436;-67
2023/06/22 06:39:31;;;;;;;14.47;13.17;;;;;;;22.07;100.00;101661.97;5215632;28;20477;-65
2023/06/22 06:42:03;;;;;;;17.23;15.23;;;;;;;22.13;100.00;101657.75;5211672;28;20034;-65
2023/06/22 06:44:34;;;;;;;15.13;13.63;;;;;;;22.24;100.00;101661.81;5214573;28;20033;-69
2023/06/22 06:47:06;;;;;;;15.87;14.37;;;;;;;22.28;100.00;101663.09;5216600;28;20660;-67
2023/06/22 06:49:38;;;;;;;15.43;13.82;;;;;;;22.28;100.00;101660.44;5217547;28;20049;-66
2023/06/22 06:52:09;;;;;;;16.60;14.77;;;;;;;22.36;100.00;101667.50;5219424;28;20052;-66
2023/06/22 06:54:41;;;;;;;15.47;14.07;;;;;;;22.37;100.00;101667.28;5215189;28;20071;-67
2023/06/22 06:57:14;;;;;;;15.50;13.77;;;;;;;22.41;100.00;101665.06;5210222;28;20052;-67
2023/06/22 06:59:46;;;;;;;17.42;15.60;;;;;;;22.41;100.00;101662.41;5215506;28;20041;-66
2023/06/22 07:02:17;;;;;;;16.07;14.57;;;;;;;22.47;100.00;101662.50;5217141;28;20086;-67
2023/06/22 07:04:49;;;;;;;18.63;14.40;;;;;;;22.56;100.00;101656.00;5222194;28;20037;-66
2023/06/22 07:07:20;;;;;;;15.77;14.30;;;;;;;22.56;100.00;101666.69;5222881;28;20076;-66
2023/06/22 07:09:51;;;;;;;15.03;13.63;;;;;;;22.64;100.00;101663.06;5222965;28;20514;-67
2023/06/22 07:12:23;;;;;;;16.60;14.90;;;;;;;22.62;100.00;101664.28;5225150;28;20045;-66
2023/06/22 07:15:01;;;;;;;17.50;15.37;;;;;;;22.68;100.00;101656.31;5213481;28;20409;-67
2023/06/22 07:17:33;;;;;;;15.38;13.98;;;;;;;22.59;100.00;101658.31;5203884;28;20030;-67
2023/06/22 07:20:11;;;;;;;16.00;14.17;;;;;;;22.61;100.00;101651.94;5195544;28;20037;-67
2023/06/22 07:22:47;;;;;;;16.85;14.65;;;;;;;22.61;100.00;101663.44;5217363;28;20033;-68
2023/06/22 07:25:18;;;;;;;15.88;14.25;;;;;;;22.54;100.00;101659.88;5216392;28;20026;-67
2023/06/22 07:28:01;;;;;;;17.37;15.57;;;;;;;22.77;100.00;101660.53;5219087;28;20022;-67
2023/06/22 07:30:33;;;;;;;16.17;14.50;;;;;;;22.66;100.00;101652.22;5218449;28;20513;-66
2023/06/22 07:33:07;;;;;;;16.63;15.10;;;;;;;22.64;100.00;101652.38;5219336;28;20025;-67
2023/06/22 07:35:39;;;;;;;17.02;15.23;;;;;;;22.57;100.00;101657.66;5214780;28;20025;-67
2023/06/22 07:38:10;;;;;;;16.87;15.27;;;;;;;22.71;100.00;101653.28;5216439;28;20174;-67
2023/06/22 07:40:42;;;;;;;17.70;15.73;;;;;;;22.69;100.00;101635.78;5200207;28;20022;-68
2023/06/22 07:43:13;;;;;;;17.33;15.63;;;;;;;22.69;100.00;101633.97;5211135;28;20045;-67
2023/06/22 07:45:54;;;;;;;17.33;15.73;;;;;;;22.88;100.00;101627.16;5215253;28;20022;-68
2023/06/22 07:48:25;;;;;;;17.92;16.30;;;;;;;22.68;100.00;101620.78;5211115;28;20545;-67
2023/06/22 07:50:57;;;;;;;18.17;16.40;;;;;;;22.77;100.00;101614.31;5209588;28;20041;-67
2023/06/22 07:53:28;;;;;;;19.50;17.40;;;;;;;22.74;100.00;101606.66;5215274;28;20442;-66
2023/06/22 07:55:59;;;;;;;19.77;17.70;;;;;;;22.79;100.00;101604.22;5211733;28;20037;-67
2023/06/22 07:58:31;;;;;;;21.03;18.53;;;;;;;22.76;100.00;101589.41;5214427;28;20101;-68
2023/06/22 08:01:03;;;;;;;19.10;17.10;;;;;;;22.72;100.00;101577.47;5222083;28;20044;-68
2023/06/22 08:03:34;;;;;;;19.77;17.35;;;;;;;22.80;100.00;101582.66;5219602;28;20033;-66
2023/06/22 08:06:08;;;;;;;20.70;18.60;;;;;;;22.82;100.00;101569.13;5212856;28;20033;-67
2023/06/22 08:08:40;;;;;;;20.27;18.13;;;;;;;22.87;100.00;101563.19;5216093;28;20018;-67
2023/06/22 08:11:11;;;;;;;20.30;18.37;;;;;;;22.95;100.00;101566.56;5219767;28;20401;-67
2023/06/22 08:13:42;;;;;;;19.27;17.07;;;;;;;23.01;100.00;101562.31;5196105;28;20071;-68
2023/06/22 08:16:14;;;;;;;22.17;17.00;;;;;;;23.04;100.00;101560.06;5213129;28;20033;-67
2023/06/22 08:18:46;;;;;;;19.10;17.20;;;;;;;23.13;100.00;101565.28;5211184;28;20025;-67
2023/06/22 08:21:17;;;;;;;19.90;18.07;;;;;;;23.14;100.00;101557.03;5214758;28;20269;-65
2023/06/22 08:23:48;;;;;;;19.37;17.00;;;;;;;23.23;100.00;101549.72;5220198;28;20385;-65
2023/06/22 08:26:20;;;;;;;17.27;15.57;;;;;;;23.22;100.00;101562.25;5215711;28;20029;-67
2023/06/22 08:28:52;;;;;;;19.03;17.07;;;;;;;23.27;100.00;101561.66;5215570;28;20025;-67
2023/06/22 08:31:23;;;;;;;19.83;17.85;;;;;;;23.29;100.00;101555.09;5215251;28;20044;-68
2023/06/22 08:33:55;;;;;;;18.67;16.93;;;;;;;23.29;100.00;101552.41;5213500;28;20034;-67
2023/06/22 08:36:28;;;;;;;19.70;17.73;;;;;;;23.31;100.00;101552.22;5213578;28;20406;-65
2023/06/22 08:39:01;;;;;;;18.45;16.65;;;;;;;23.27;100.00;101550.97;5207634;28;20030;-68
2023/06/22 08:41:32;;;;;;;19.10;17.17;;;;;;;23.34;100.00;101557.19;5217416;28;20025;-67
2023/06/22 08:44:03;;;;;;;18.17;15.77;;;;;;;23.34;100.00;101556.38;5210909;28;20763;-68
2023/06/22 08:46:35;;;;;;;16.53;15.00;;;;;;;23.31;100.00;101553.06;5218827;28;20370;-67
2023/06/22 08:49:06;;;;;;;17.27;15.57;;;;;;;23.31;100.00;101553.06;5217139;28;20029;-68
2023/06/22 08:51:38;;;;;;;16.63;15.03;;;;;;;23.29;100.00;101546.22;5221470;28;20058;-68
2023/06/22 08:54:09;;;;;;;15.90;14.43;;;;;;;23.31;100.00;101545.03;5212705;28;20313;-67
2023/06/22 08:56:40;;;;;;;16.87;14.47;;;;;;;23.30;100.00;101548.72;5216578;28;20168;-66
2023/06/22 08:59:12;;;;;;;15.63;13.37;;;;;;;23.30;100.00;101542.56;5219886;28;20079;-66
2023/06/22 09:01:45;;;;;;;15.33;13.80;;;;;;;23.27;100.00;101534.94;5217793;28;20033;-66
2023/06/22 09:04:16;;;;;;;16.98;14.68;;;;;;;23.21;100.00;101522.34;5215464;28;20182;-66
2023/06/22 09:06:49;;;;;;;15.37;13.87;;;;;;;23.27;100.00;101527.72;5223606;28;20112;-66
2023/06/22 09:09:21;;;;;;;14.52;13.13;;;;;;;23.23;100.00;101529.16;5221532;28;20071;-66
2023/06/22 09:11:52;;;;;;;14.57;13.17;;;;;;;23.33;100.00;101533.31;5215322;28;20033;-67
2023/06/22 09:14:23;;;;;;;13.63;12.33;;;;;;;23.31;100.00;101531.66;5212882;28;20086;-68
2023/06/22 09:16:55;;;;;;;17.07;13.50;;;;;;;23.31;100.00;101522.81;5226344;28;20478;-66
2023/06/22 09:19:26;;;;;;;15.30;13.20;;;;;;;23.32;100.00;101527.13;5222457;28;20018;-66
2023/06/22 09:21:57;;;;;;;13.67;12.27;;;;;;;23.40;100.00;101526.16;5217142;28;20493;-66
2023/06/22 09:24:28;;;;;;;12.87;11.17;;;;;;;23.45;100.00;101529.03;5212689;28;20026;-66
2023/06/22 09:27:00;;;;;;;15.70;12.93;;;;;;;23.44;100.00;101525.53;5219164;28;20086;-67
2023/06/22 09:29:33;;;;;;;13.53;12.23;;;;;;;23.50;100.00;101522.09;5220120;28;20032;-66
2023/06/22 09:32:05;;;;;;;12.93;11.63;;;;;;;23.50;100.00;101532.78;5219456;28;20146;-66
2023/06/22 09:34:36;;;;;;;12.87;11.53;;;;;;;23.55;100.00;101529.50;5210658;28;20497;-67
2023/06/22 09:37:08;;;;;;;14.37;11.23;;;;;;;23.62;100.00;101521.50;5210593;28;20771;-66
2023/06/22 09:39:39;;;;;;;12.23;11.00;;;;;;;23.65;100.00;101516.59;5229062;28;20607;-67
2023/06/22 09:42:11;;;;;;;12.00;10.87;;;;;;;23.79;100.00;101533.56;5219288;28;20213;-67
2023/06/22 09:44:42;;;;;;;11.88;10.63;;;;;;;23.77;100.00;101527.56;5217249;28;20447;-67
2023/06/22 09:47:14;;;;;;;11.70;10.70;;;;;;;23.71;100.00;101518.47;5213353;28;20129;-66
2023/06/22 09:49:45;;;;;;;12.07;10.50;;;;;;;23.82;100.00;101517.06;5218702;28;20033;-67
2023/06/22 09:52:16;;;;;;;12.37;10.73;;;;;;;23.90;100.00;101516.91;5218886;28;20022;-66
2023/06/22 09:54:48;;;;;;;11.67;10.53;;;;;;;23.91;100.00;101515.06;5215964;28;20492;-68
2023/06/22 09:57:19;;;;;;;11.00;9.87;;;;;;;23.84;100.00;101519.56;5211085;28;20040;-67
2023/06/22 09:59:50;;;;;;;12.23;9.97;;;;;;;23.88;100.00;101515.47;5216783;28;20010;-70
2023/06/22 10:02:22;;;;;;;13.20;9.63;;;;;;;23.96;100.00;101516.09;5216030;28;20025;-66
2023/06/22 10:04:53;;;;;;;11.23;9.70;;;;;;;23.98;100.00;101514.06;5219307;28;20034;-67
2023/06/22 10:07:24;;;;;;;10.60;9.60;;;;;;;24.02;100.00;101517.97;5211443;28;20798;-66
2023/06/22 10:09:56;;;;;;;10.90;9.80;;;;;;;24.10;99.08;101513.47;5219200;28;20049;-66
2023/06/22 10:12:27;;;;;;;11.27;10.07;;;;;;;24.00;96.96;101508.50;5216899;28;20041;-67
2023/06/22 10:14:58;;;;;;;10.23;9.23;;;;;;;24.10;95.82;101518.81;5221758;28;20025;-68
2023/06/22 10:17:30;;;;;;;10.60;9.37;;;;;;;24.11;97.28;101513.25;5211391;28;20029;-67
2023/06/22 10:20:10;;;;;;;11.10;10.00;;;;;;;24.12;100.00;101514.88;5214448;28;20069;-66
2023/06/22 10:22:44;;;;;;;15.88;9.55;;;;;;;24.06;100.00;101520.25;5213291;28;20053;-68
2023/06/22 10:25:15;;;;;;;10.43;9.45;;;;;;;23.99;100.00;101517.56;5219090;28;20025;-68
2023/06/22 10:27:47;;;;;;;9.83;8.87;;;;;;;23.93;100.00;101513.81;5217712;28;20034;-68
2023/06/22 10:30:18;;;;;;;11.33;9.73;;;;;;;23.98;100.00;101522.09;5221256;28;20065;-68
2023/06/22 10:32:49;;;;;;;13.70;10.70;;;;;;;23.90;100.00;101524.09;5217418;28;20049;-67
2023/06/22 10:35:21;;;;;;;12.23;10.93;;;;;;;23.97;100.00;101528.44;5216425;28;20035;-67
2023/06/22 10:37:52;;;;;;;14.33;11.73;;;;;;;23.97;100.00;101536.47;5221585;28;20029;-68
2023/06/22 10:40:23;;;;;;;16.17;11.87;;;;;;;23.91;100.00;101537.28;5215133;28;20440;-65
2023/06/22 10:42:55;;;;;;;13.27;11.83;;;;;;;23.91;100.00;101539.16;5212309;28;20130;-68
2023/06/22 10:45:27;;;;;;;14.13;11.23;;;;;;;23.86;100.00;101549.63;5226735;28;20063;-68
2023/06/22 10:47:58;;;;;;;13.55;12.23;;;;;;;23.82;100.00;101554.53;5216724;28;20057;-67
2023/06/22 10:50:29;;;;;;;13.70;12.30;;;;;;;23.85;100.00;101556.81;5212253;28;20410;-67
2023/06/22 10:53:01;;;;;;;18.23;12.83;;;;;;;23.85;100.00;101553.31;5216127;28;20534;-67
2023/06/22 10:55:32;;;;;;;17.60;13.67;;;;;;;23.73;100.00;101558.44;5218963;28;20461;-68
2023/06/22 10:58:03;;;;;;;13.87;12.57;;;;;;;23.70;100.00;101561.50;5223051;28;20385;-68
2023/06/22 11:00:34;;;;;;;16.90;13.27;;;;;;;23.71;100.00;101557.78;5218766;28;20021;-67
2023/06/22 11:03:06;;;;;;;16.17;14.53;;;;;;;23.67;100.00;101551.19;5217599;28;20105;-65
2023/06/22 11:05:37;;;;;;;15.77;14.20;;;;;;;23.56;100.00;101555.22;5216366;28;20026;-67
2023/06/22 11:08:08;;;;;;;16.10;14.27;;;;;;;23.45;100.00;101553.97;5216011;28;20556;-68
2023/06/22 11:10:39;;;;;;;15.87;14.37;;;;;;;23.41;100.00;101551.84;5211205;28;20386;-68
2023/06/22 11:13:11;;;;;;;17.00;15.30;;;;;;;23.43;100.00;101560.53;5216733;28;20443;-67
2023/06/22 11:15:42;;;;;;;15.70;14.07;;;;;;;23.35;100.00;101555.34;5221273;28;20440;-67
2023/06/22 11:18:13;;;;;;;16.30;14.80;;;;;;;23.26;100.00;101554.66;5217187;28;20120;-64
2023/06/22 11:20:45;;;;;;;17.23;15.73;;;;;;;23.21;100.00;101554.41;5220715;28;20018;-65
2023/06/22 11:23:16;;;;;;;15.67;14.23;;;;;;;23.19;100.00;101557.31;5221702;28;20032;-67
2023/06/22 11:25:47;;;;;;;17.73;16.07;;;;;;;23.21;100.00;101554.41;5215856;28;20026;-68
2023/06/22 11:28:18;;;;;;;17.63;15.83;;;;;;;23.12;100.00;101555.59;5213595;28;20430;-66